Ana Sayfa
METAR-TAF:

METAR-TAF

Havaalanları :

Brownwood, Teksas, Amerika Birleşik Devletleri

Enlem: 31-48N, Boylam: 098-57W, yükseklik: 422 m

Güncel hava durumu gözlemi

Rapor saat 04:15 UTC de 21 dakika önce yapıldı.
Rüzgar güneydoğudan 8 kt
Sıcaklık 24°C
Nem 78%
Basınç 1022 hPa
Görüş mesafesi: 16.1 km
2100 ft yükseklikte parçalı çok bulutlu
5000 ft yükseklikte çok bulutlu

METAR: KBWD 270415Z AUTO 13008KT 10SM BKN021 OVC050 24/20 A3017 RMK AO1

Saat: 23:36 (04:36 UTC)


TAF: eksik

4.000'den fazla havaalanı için hava durumu gözlemleri ve tahminleri (METAR ve TAF raporları).

Kullanılabilir istasyonlar harita üzerinde sarı ve kırmızı noktalarla gösterilir.

İstasyonun adını görmek için fareyi noktanın üzerinde gezdirin.

Sonrasında hava gözlem ve tahminlerini görmek için tıklayın.

Haritayı değiştirmek için: yaklaştırmak için siyah artı işaretli yeşil düğmeye ve uzaklaştırmak için de eksi işaretli düğmeye hızla tıklayın; bitişik haritalar için yeşil okları kullanın.


METAR-TAF: